sensor_id;sensor_type;location;lat;lon;timestamp;pressure;altitude;pressure_sealevel;temperature
70389;BMP280;58659;49.050;8.530;2023-02-20T00:00:47;101036.75;;;7.96
70389;BMP280;58659;49.050;8.530;2023-02-20T00:03:14;101026.25;;;7.88
70389;BMP280;58659;49.050;8.530;2023-02-20T00:05:40;101021.69;;;7.85
70389;BMP280;58659;49.050;8.530;2023-02-20T00:08:05;101020.41;;;7.74
70389;BMP280;58659;49.050;8.530;2023-02-20T00:10:31;101004.25;;;7.63
70389;BMP280;58659;49.050;8.530;2023-02-20T00:12:56;101005.75;;;7.56
70389;BMP280;58659;49.050;8.530;2023-02-20T00:15:21;101007.53;;;7.46
70389;BMP280;58659;49.050;8.530;2023-02-20T00:17:47;101016.38;;;7.45
70389;BMP280;58659;49.050;8.530;2023-02-20T00:20:15;101007.78;;;7.36
70389;BMP280;58659;49.050;8.530;2023-02-20T00:22:40;101006.03;;;7.32
70389;BMP280;58659;49.050;8.530;2023-02-20T00:25:06;101005.47;;;7.21
70389;BMP280;58659;49.050;8.530;2023-02-20T00:27:31;101014.38;;;7.20
70389;BMP280;58659;49.050;8.530;2023-02-20T00:29:56;101007.84;;;7.09
70389;BMP280;58659;49.050;8.530;2023-02-20T00:32:21;101006.34;;;6.94
70389;BMP280;58659;49.050;8.530;2023-02-20T00:34:47;100986.19;;;6.78
70389;BMP280;58659;49.050;8.530;2023-02-20T00:37:12;100970.03;;;6.67
70389;BMP280;58659;49.050;8.530;2023-02-20T00:39:37;100957.22;;;6.71
70389;BMP280;58659;49.050;8.530;2023-02-20T00:42:03;100953.59;;;6.72
70389;BMP280;58659;49.050;8.530;2023-02-20T00:44:28;100959.25;;;6.74
70389;BMP280;58659;49.050;8.530;2023-02-20T00:46:53;100958.28;;;6.70
70389;BMP280;58659;49.050;8.530;2023-02-20T00:49:19;100953.31;;;6.60
70389;BMP280;58659;49.050;8.530;2023-02-20T00:51:44;100948.69;;;6.56
70389;BMP280;58659;49.050;8.530;2023-02-20T00:54:09;100943.34;;;6.53
70389;BMP280;58659;49.050;8.530;2023-02-20T00:56:35;100941.41;;;6.45
70389;BMP280;58659;49.050;8.530;2023-02-20T00:59:00;100935.75;;;6.43
70389;BMP280;58659;49.050;8.530;2023-02-20T01:01:25;100925.25;;;6.48
70389;BMP280;58659;49.050;8.530;2023-02-20T01:03:51;100918.66;;;6.42
70389;BMP280;58659;49.050;8.530;2023-02-20T01:06:16;100921.13;;;6.33
70389;BMP280;58659;49.050;8.530;2023-02-20T01:08:41;100905.69;;;6.28
70389;BMP280;58659;49.050;8.530;2023-02-20T01:11:07;100901.63;;;6.22
70389;BMP280;58659;49.050;8.530;2023-02-20T01:13:32;100894.22;;;6.29
70389;BMP280;58659;49.050;8.530;2023-02-20T01:15:57;100891.75;;;6.24
70389;BMP280;58659;49.050;8.530;2023-02-20T01:18:23;100891.75;;;6.24
70389;BMP280;58659;49.050;8.530;2023-02-20T01:20:48;100888.16;;;6.20
70389;BMP280;58659;49.050;8.530;2023-02-20T01:23:13;100890.50;;;6.08
70389;BMP280;58659;49.050;8.530;2023-02-20T01:25:39;100881.66;;;6.09
70389;BMP280;58659;49.050;8.530;2023-02-20T01:28:04;100871.97;;;6.01
70389;BMP280;58659;49.050;8.530;2023-02-20T01:30:30;100865.63;;;6.07
70389;BMP280;58659;49.050;8.530;2023-02-20T01:32:55;100871.28;;;6.09
70389;BMP280;58659;49.050;8.530;2023-02-20T01:35:20;100869.72;;;6.08
70389;BMP280;58659;49.050;8.530;2023-02-20T01:37:45;100866.38;;;6.07
70389;BMP280;58659;49.050;8.530;2023-02-20T01:40:16;100858.59;;;6.07
70389;BMP280;58659;49.050;8.530;2023-02-20T01:42:41;100857.44;;;6.14
70389;BMP280;58659;49.050;8.530;2023-02-20T01:47:48;100878.50;;;6.12
70389;BMP280;58659;49.050;8.530;2023-02-20T01:50:17;100884.28;;;5.95
70389;BMP280;58659;49.050;8.530;2023-02-20T01:52:44;100876.38;;;5.87
70389;BMP280;58659;49.050;8.530;2023-02-20T01:55:17;100878.03;;;5.83
70389;BMP280;58659;49.050;8.530;2023-02-20T02:00:49;100861.00;;;5.77
70389;BMP280;58659;49.050;8.530;2023-02-20T02:03:21;100838.22;;;5.74
70389;BMP280;58659;49.050;8.530;2023-02-20T02:05:51;100839.41;;;5.68
70389;BMP280;58659;49.050;8.530;2023-02-20T02:08:19;100832.47;;;5.63
70389;BMP280;58659;49.050;8.530;2023-02-20T02:13:30;100812.59;;;5.58
70389;BMP280;58659;49.050;8.530;2023-02-20T02:16:29;100797.72;;;5.50
70389;BMP280;58659;49.050;8.530;2023-02-20T02:27:51;100800.78;;;5.66
70389;BMP280;58659;49.050;8.530;2023-02-20T02:41:53;100800.03;;;5.52
70389;BMP280;58659;49.050;8.530;2023-02-20T02:47:10;100795.63;;;5.52
70389;BMP280;58659;49.050;8.530;2023-02-20T02:49:58;100796.53;;;5.56
70389;BMP280;58659;49.050;8.530;2023-02-20T02:52:25;100792.63;;;5.59
70389;BMP280;58659;49.050;8.530;2023-02-20T02:55:11;100796.59;;;5.70
70389;BMP280;58659;49.050;8.530;2023-02-20T02:57:37;100808.66;;;5.75
70389;BMP280;58659;49.050;8.530;2023-02-20T03:00:17;100817.22;;;5.75
70389;BMP280;58659;49.050;8.530;2023-02-20T03:05:09;100809.34;;;5.80
70389;BMP280;58659;49.050;8.530;2023-02-20T03:07:37;100817.50;;;5.87
70389;BMP280;58659;49.050;8.530;2023-02-20T03:10:09;100821.53;;;5.93
70389;BMP280;58659;49.050;8.530;2023-02-20T03:12:37;100828.44;;;5.98
70389;BMP280;58659;49.050;8.530;2023-02-20T03:18:28;100844.88;;;5.93
70389;BMP280;58659;49.050;8.530;2023-02-20T03:21:03;100847.56;;;5.88
70389;BMP280;58659;49.050;8.530;2023-02-20T03:23:36;100828.94;;;5.86
70389;BMP280;58659;49.050;8.530;2023-02-20T03:26:09;100846.91;;;5.83
70389;BMP280;58659;49.050;8.530;2023-02-20T03:28:40;100832.69;;;5.80
70389;BMP280;58659;49.050;8.530;2023-02-20T03:31:11;100840.53;;;5.75
70389;BMP280;58659;49.050;8.530;2023-02-20T03:33:49;100836.69;;;5.73
70389;BMP280;58659;49.050;8.530;2023-02-20T03:36:44;100828.91;;;5.73
70389;BMP280;58659;49.050;8.530;2023-02-20T03:39:40;100834.69;;;5.70
70389;BMP280;58659;49.050;8.530;2023-02-20T03:42:27;100825.97;;;5.66
70389;BMP280;58659;49.050;8.530;2023-02-20T03:45:13;100832.69;;;5.53
70389;BMP280;58659;49.050;8.530;2023-02-20T03:47:43;100820.00;;;5.51
70389;BMP280;58659;49.050;8.530;2023-02-20T03:50:10;100804.06;;;5.58
70389;BMP280;58659;49.050;8.530;2023-02-20T03:52:56;100805.41;;;5.55
70389;BMP280;58659;49.050;8.530;2023-02-20T03:55:22;100813.06;;;5.60
70389;BMP280;58659;49.050;8.530;2023-02-20T03:57:51;100831.41;;;5.50
70389;BMP280;58659;49.050;8.530;2023-02-20T04:00:21;100818.81;;;5.44
70389;BMP280;58659;49.050;8.530;2023-02-20T04:02:50;100821.88;;;5.32
70389;BMP280;58659;49.050;8.530;2023-02-20T04:05:26;100817.66;;;5.23
70389;BMP280;58659;49.050;8.530;2023-02-20T04:08:09;100804.00;;;5.17
70389;BMP280;58659;49.050;8.530;2023-02-20T04:10:41;100799.19;;;5.10
70389;BMP280;58659;49.050;8.530;2023-02-20T04:13:08;100777.78;;;5.05
70389;BMP280;58659;49.050;8.530;2023-02-20T04:15:35;100788.28;;;4.95
70389;BMP280;58659;49.050;8.530;2023-02-20T04:18:08;100769.97;;;4.91
70389;BMP280;58659;49.050;8.530;2023-02-20T04:20:34;100770.16;;;4.81
70389;BMP280;58659;49.050;8.530;2023-02-20T04:23:06;100773.97;;;4.84
70389;BMP280;58659;49.050;8.530;2023-02-20T04:28:05;100776.25;;;4.71
70389;BMP280;58659;49.050;8.530;2023-02-20T04:30:31;100762.31;;;4.67
70389;BMP280;58659;49.050;8.530;2023-02-20T04:32:57;100762.25;;;4.72
70389;BMP280;58659;49.050;8.530;2023-02-20T04:35:22;100746.91;;;4.76
70389;BMP280;58659;49.050;8.530;2023-02-20T04:37:48;100748.94;;;4.79
70389;BMP280;58659;49.050;8.530;2023-02-20T04:40:15;100729.31;;;4.92
70389;BMP280;58659;49.050;8.530;2023-02-20T04:42:41;100729.91;;;5.02
70389;BMP280;58659;49.050;8.530;2023-02-20T04:45:06;100738.25;;;5.13
70389;BMP280;58659;49.050;8.530;2023-02-20T04:47:32;100744.72;;;5.15
70389;BMP280;58659;49.050;8.530;2023-02-20T04:49:57;100767.75;;;5.17
70389;BMP280;58659;49.050;8.530;2023-02-20T04:52:22;100768.97;;;5.19
70389;BMP280;58659;49.050;8.530;2023-02-20T04:54:49;100773.31;;;5.24
70389;BMP280;58659;49.050;8.530;2023-02-20T04:57:14;100778.41;;;5.29
70389;BMP280;58659;49.050;8.530;2023-02-20T04:59:40;100794.72;;;5.30
70389;BMP280;58659;49.050;8.530;2023-02-20T05:02:05;100790.50;;;5.34
70389;BMP280;58659;49.050;8.530;2023-02-20T05:04:31;100796.38;;;5.39
70389;BMP280;58659;49.050;8.530;2023-02-20T05:06:57;100804.91;;;5.40
70389;BMP280;58659;49.050;8.530;2023-02-20T05:09:23;100801.38;;;5.36
70389;BMP280;58659;49.050;8.530;2023-02-20T05:11:49;100787.91;;;5.34
70389;BMP280;58659;49.050;8.530;2023-02-20T05:14:14;100790.69;;;5.37
70389;BMP280;58659;49.050;8.530;2023-02-20T05:16:41;100782.91;;;5.37
70389;BMP280;58659;49.050;8.530;2023-02-20T05:19:07;100785.22;;;5.39
70389;BMP280;58659;49.050;8.530;2023-02-20T05:21:33;100786.00;;;5.39
70389;BMP280;58659;49.050;8.530;2023-02-20T05:24:36;100793.88;;;5.34
70389;BMP280;58659;49.050;8.530;2023-02-20T05:27:02;100788.69;;;5.34
70389;BMP280;58659;49.050;8.530;2023-02-20T05:29:27;100792.88;;;5.30
70389;BMP280;58659;49.050;8.530;2023-02-20T05:31:53;100795.19;;;5.32
70389;BMP280;58659;49.050;8.530;2023-02-20T05:34:18;100794.03;;;5.24
70389;BMP280;58659;49.050;8.530;2023-02-20T05:36:45;100787.41;;;5.18
70389;BMP280;58659;49.050;8.530;2023-02-20T05:39:10;100782.50;;;5.16
70389;BMP280;58659;49.050;8.530;2023-02-20T05:41:36;100779.44;;;5.14
70389;BMP280;58659;49.050;8.530;2023-02-20T05:44:01;100776.91;;;5.09
70389;BMP280;58659;49.050;8.530;2023-02-20T05:46:27;100773.47;;;5.14
70389;BMP280;58659;49.050;8.530;2023-02-20T05:48:53;100764.25;;;5.08
70389;BMP280;58659;49.050;8.530;2023-02-20T05:51:26;100763.69;;;5.11
70389;BMP280;58659;49.050;8.530;2023-02-20T05:53:52;100768.88;;;5.11
70389;BMP280;58659;49.050;8.530;2023-02-20T05:56:18;100778.06;;;5.03
70389;BMP280;58659;49.050;8.530;2023-02-20T05:58:44;100762.72;;;5.07
70389;BMP280;58659;49.050;8.530;2023-02-20T06:01:22;100751.28;;;5.08
70389;BMP280;58659;49.050;8.530;2023-02-20T06:03:48;100749.97;;;5.10
70389;BMP280;58659;49.050;8.530;2023-02-20T06:06:14;100756.19;;;5.09
70389;BMP280;58659;49.050;8.530;2023-02-20T06:08:40;100753.75;;;5.18
70389;BMP280;58659;49.050;8.530;2023-02-20T06:11:06;100758.63;;;5.19
70389;BMP280;58659;49.050;8.530;2023-02-20T06:13:31;100764.09;;;5.18
70389;BMP280;58659;49.050;8.530;2023-02-20T06:15:57;100753.16;;;5.21
70389;BMP280;58659;49.050;8.530;2023-02-20T06:18:22;100774.38;;;5.23
70389;BMP280;58659;49.050;8.530;2023-02-20T06:20:47;100780.78;;;5.26
70389;BMP280;58659;49.050;8.530;2023-02-20T06:23:13;100791.91;;;5.26
70389;BMP280;58659;49.050;8.530;2023-02-20T06:25:38;100796.50;;;5.15
70389;BMP280;58659;49.050;8.530;2023-02-20T06:28:03;100798.28;;;5.01
70389;BMP280;58659;49.050;8.530;2023-02-20T06:30:29;100784.44;;;4.92
70389;BMP280;58659;49.050;8.530;2023-02-20T06:32:54;100773.00;;;4.80
70389;BMP280;58659;49.050;8.530;2023-02-20T06:35:19;100768.16;;;4.73
70389;BMP280;58659;49.050;8.530;2023-02-20T06:37:45;100750.34;;;4.71
70389;BMP280;58659;49.050;8.530;2023-02-20T06:40:10;100753.25;;;4.70
70389;BMP280;58659;49.050;8.530;2023-02-20T06:42:36;100741.13;;;4.65
70389;BMP280;58659;49.050;8.530;2023-02-20T06:45:01;100749.00;;;4.74
70389;BMP280;58659;49.050;8.530;2023-02-20T06:47:26;100742.78;;;4.75
70389;BMP280;58659;49.050;8.530;2023-02-20T06:49:54;100738.84;;;4.78
70389;BMP280;58659;49.050;8.530;2023-02-20T06:52:20;100731.22;;;4.86
70389;BMP280;58659;49.050;8.530;2023-02-20T06:54:45;100756.16;;;4.96
70389;BMP280;58659;49.050;8.530;2023-02-20T06:57:11;100756.38;;;4.99
70389;BMP280;58659;49.050;8.530;2023-02-20T06:59:36;100761.25;;;5.01
70389;BMP280;58659;49.050;8.530;2023-02-20T07:02:09;100770.31;;;5.03
70389;BMP280;58659;49.050;8.530;2023-02-20T07:04:35;100783.25;;;5.03
70389;BMP280;58659;49.050;8.530;2023-02-20T07:07:00;100777.09;;;4.99
70389;BMP280;58659;49.050;8.530;2023-02-20T07:09:26;100788.22;;;5.00
70389;BMP280;58659;49.050;8.530;2023-02-20T07:11:52;100782.75;;;5.01
70389;BMP280;58659;49.050;8.530;2023-02-20T07:14:18;100761.84;;;4.98
70389;BMP280;58659;49.050;8.530;2023-02-20T07:16:44;100769.34;;;4.99
70389;BMP280;58659;49.050;8.530;2023-02-20T07:19:09;100756.97;;;5.10
70389;BMP280;58659;49.050;8.530;2023-02-20T07:21:34;100730.91;;;5.20
70389;BMP280;58659;49.050;8.530;2023-02-20T07:23:59;100716.22;;;5.29
70389;BMP280;58659;49.050;8.530;2023-02-20T07:26:27;100740.31;;;5.30
70389;BMP280;58659;49.050;8.530;2023-02-20T07:28:53;100751.91;;;5.32
70389;BMP280;58659;49.050;8.530;2023-02-20T07:31:19;100779.44;;;5.28
70389;BMP280;58659;49.050;8.530;2023-02-20T07:33:45;100794.03;;;5.24
70389;BMP280;58659;49.050;8.530;2023-02-20T07:36:11;100812.63;;;5.26
70389;BMP280;58659;49.050;8.530;2023-02-20T07:38:37;100834.06;;;5.18
70389;BMP280;58659;49.050;8.530;2023-02-20T07:41:02;100841.66;;;5.09
70389;BMP280;58659;49.050;8.530;2023-02-20T07:43:28;100829.09;;;5.03
70389;BMP280;58659;49.050;8.530;2023-02-20T07:45:53;100825.03;;;4.97
70389;BMP280;58659;49.050;8.530;2023-02-20T07:48:18;100799.72;;;4.94
70389;BMP280;58659;49.050;8.530;2023-02-20T07:50:44;100790.31;;;4.98
70389;BMP280;58659;49.050;8.530;2023-02-20T07:53:13;100791.59;;;5.14
70389;BMP280;58659;49.050;8.530;2023-02-20T07:55:38;100806.69;;;5.26
70389;BMP280;58659;49.050;8.530;2023-02-20T07:58:04;100821.31;;;5.35
70389;BMP280;58659;49.050;8.530;2023-02-20T08:00:29;100837.84;;;5.39
70389;BMP280;58659;49.050;8.530;2023-02-20T08:02:54;100840.16;;;5.41
70389;BMP280;58659;49.050;8.530;2023-02-20T08:05:20;100851.66;;;5.48
70389;BMP280;58659;49.050;8.530;2023-02-20T08:07:46;100848.00;;;5.49
70389;BMP280;58659;49.050;8.530;2023-02-20T08:10:13;100850.59;;;5.49
70389;BMP280;58659;49.050;8.530;2023-02-20T08:12:42;100842.28;;;5.52
70389;BMP280;58659;49.050;8.530;2023-02-20T08:15:07;100867.38;;;5.71
70389;BMP280;58659;49.050;8.530;2023-02-20T08:17:36;100884.16;;;5.87
70389;BMP280;58659;49.050;8.530;2023-02-20T08:20:01;100889.94;;;5.97
70389;BMP280;58659;49.050;8.530;2023-02-20T08:22:27;100902.50;;;6.04
70389;BMP280;58659;49.050;8.530;2023-02-20T08:24:52;100909.72;;;6.07
70389;BMP280;58659;49.050;8.530;2023-02-20T08:27:17;100913.16;;;6.16
70389;BMP280;58659;49.050;8.530;2023-02-20T08:29:44;100913.56;;;6.23
70389;BMP280;58659;49.050;8.530;2023-02-20T08:32:09;100936.16;;;6.36
70389;BMP280;58659;49.050;8.530;2023-02-20T08:34:34;100932.28;;;6.47
70389;BMP280;58659;49.050;8.530;2023-02-20T08:37:00;100948.09;;;6.73
70389;BMP280;58659;49.050;8.530;2023-02-20T08:39:25;100963.53;;;6.92
70389;BMP280;58659;49.050;8.530;2023-02-20T08:41:51;100956.88;;;6.99
70389;BMP280;58659;49.050;8.530;2023-02-20T08:44:16;100966.75;;;7.11
70389;BMP280;58659;49.050;8.530;2023-02-20T08:46:49;100980.78;;;7.32
70389;BMP280;58659;49.050;8.530;2023-02-20T08:49:15;100973.91;;;7.50
70389;BMP280;58659;49.050;8.530;2023-02-20T08:51:51;100995.47;;;7.73
70389;BMP280;58659;49.050;8.530;2023-02-20T08:54:17;100996.19;;;7.95
70389;BMP280;58659;49.050;8.530;2023-02-20T08:56:42;101009.41;;;8.16
70389;BMP280;58659;49.050;8.530;2023-02-20T08:59:08;101005.19;;;8.37
70389;BMP280;58659;49.050;8.530;2023-02-20T09:01:33;101014.59;;;8.56
70389;BMP280;58659;49.050;8.530;2023-02-20T09:03:59;101017.34;;;8.76
70389;BMP280;58659;49.050;8.530;2023-02-20T09:06:24;101022.41;;;8.81
70389;BMP280;58659;49.050;8.530;2023-02-20T09:08:51;101014.78;;;8.85
70389;BMP280;58659;49.050;8.530;2023-02-20T09:11:17;101023.94;;;8.99
70389;BMP280;58659;49.050;8.530;2023-02-20T09:13:47;101023.47;;;8.89
70389;BMP280;58659;49.050;8.530;2023-02-20T09:16:15;101021.50;;;8.94
70389;BMP280;58659;49.050;8.530;2023-02-20T09:18:42;101027.63;;;8.90
70389;BMP280;58659;49.050;8.530;2023-02-20T09:21:09;101022.91;;;8.92
70389;BMP280;58659;49.050;8.530;2023-02-20T09:23:35;101013.06;;;8.89
70389;BMP280;58659;49.050;8.530;2023-02-20T09:26:00;101018.75;;;8.91
70389;BMP280;58659;49.050;8.530;2023-02-20T09:28:25;101003.56;;;9.02
70389;BMP280;58659;49.050;8.530;2023-02-20T09:30:50;101006.81;;;9.07
70389;BMP280;58659;49.050;8.530;2023-02-20T09:33:19;101022.44;;;9.24
70389;BMP280;58659;49.050;8.530;2023-02-20T09:35:44;101014.59;;;9.33
70389;BMP280;58659;49.050;8.530;2023-02-20T09:38:09;101018.50;;;9.65
70389;BMP280;58659;49.050;8.530;2023-02-20T09:40:35;101022.38;;;10.05
70389;BMP280;58659;49.050;8.530;2023-02-20T09:45:32;101023.81;;;10.44
70389;BMP280;58659;49.050;8.530;2023-02-20T09:53:24;101008.78;;;11.03
70389;BMP280;58659;49.050;8.530;2023-02-20T09:55:54;101005.63;;;10.89
70389;BMP280;58659;49.050;8.530;2023-02-20T09:58:42;101001.72;;;10.83
70389;BMP280;58659;49.050;8.530;2023-02-20T10:01:12;101007.47;;;10.76
70389;BMP280;58659;49.050;8.530;2023-02-20T10:03:53;101006.31;;;10.86
70389;BMP280;58659;49.050;8.530;2023-02-20T10:06:22;101014.19;;;10.98
70389;BMP280;58659;49.050;8.530;2023-02-20T10:08:48;101001.03;;;10.94
70389;BMP280;58659;49.050;8.530;2023-02-20T10:11:32;101006.28;;;10.65
70389;BMP280;58659;49.050;8.530;2023-02-20T10:19:12;101001.41;;;10.64
70389;BMP280;58659;49.050;8.530;2023-02-20T10:26:53;100989.81;;;10.53
70389;BMP280;58659;49.050;8.530;2023-02-20T10:29:27;100997.16;;;10.59
70389;BMP280;58659;49.050;8.530;2023-02-20T10:32:09;100996.19;;;10.64
70389;BMP280;58659;49.050;8.530;2023-02-20T10:37:13;100984.34;;;10.99
70389;BMP280;58659;49.050;8.530;2023-02-20T10:39:49;100995.94;;;11.10
70389;BMP280;58659;49.050;8.530;2023-02-20T10:42:20;100993.56;;;11.17
70389;BMP280;58659;49.050;8.530;2023-02-20T10:44:57;100992.28;;;11.35
70389;BMP280;58659;49.050;8.530;2023-02-20T10:47:37;100994.91;;;11.35
70389;BMP280;58659;49.050;8.530;2023-02-20T10:50:22;100988.38;;;11.41
70389;BMP280;58659;49.050;8.530;2023-02-20T10:52:59;100984.25;;;11.40
70389;BMP280;58659;49.050;8.530;2023-02-20T10:56:13;100979.31;;;11.39
70389;BMP280;58659;49.050;8.530;2023-02-20T10:58:37;100977.94;;;11.41
70389;BMP280;58659;49.050;8.530;2023-02-20T11:01:07;100982.47;;;11.57
70389;BMP280;58659;49.050;8.530;2023-02-20T11:06:12;100988.19;;;11.71
70389;BMP280;58659;49.050;8.530;2023-02-20T11:08:38;100983.56;;;12.04
70389;BMP280;58659;49.050;8.530;2023-02-20T11:11:24;100974.84;;;12.12
70389;BMP280;58659;49.050;8.530;2023-02-20T11:13:50;100959.50;;;12.26
70389;BMP280;58659;49.050;8.530;2023-02-20T11:16:41;100953.03;;;12.36
70389;BMP280;58659;49.050;8.530;2023-02-20T11:19:15;100973.28;;;12.51
70389;BMP280;58659;49.050;8.530;2023-02-20T11:21:45;100969.69;;;12.55
70389;BMP280;58659;49.050;8.530;2023-02-20T11:24:24;100960.63;;;12.53
70389;BMP280;58659;49.050;8.530;2023-02-20T11:26:54;100955.53;;;12.72
70389;BMP280;58659;49.050;8.530;2023-02-20T11:29:22;100951.13;;;12.76
70389;BMP280;58659;49.050;8.530;2023-02-20T11:31:48;100950.72;;;12.90
70389;BMP280;58659;49.050;8.530;2023-02-20T11:34:18;100944.13;;;13.11
70389;BMP280;58659;49.050;8.530;2023-02-20T11:36:54;100929.84;;;13.09
70389;BMP280;58659;49.050;8.530;2023-02-20T11:39:24;100935.34;;;13.20
70389;BMP280;58659;49.050;8.530;2023-02-20T11:42:24;100928.38;;;13.43
70389;BMP280;58659;49.050;8.530;2023-02-20T11:45:11;100921.72;;;13.64
70389;BMP280;58659;49.050;8.530;2023-02-20T11:47:38;100919.31;;;13.75
70389;BMP280;58659;49.050;8.530;2023-02-20T11:50:16;100909.06;;;13.86
70389;BMP280;58659;49.050;8.530;2023-02-20T11:53:00;100906.81;;;14.07
70389;BMP280;58659;49.050;8.530;2023-02-20T11:55:28;100909.63;;;14.17
70389;BMP280;58659;49.050;8.530;2023-02-20T11:57:54;100891.19;;;13.95
70389;BMP280;58659;49.050;8.530;2023-02-20T12:00:25;100897.06;;;14.07
70389;BMP280;58659;49.050;8.530;2023-02-20T12:03:11;100889.03;;;14.39
70389;BMP280;58659;49.050;8.530;2023-02-20T12:05:45;100876.09;;;14.53
70389;BMP280;58659;49.050;8.530;2023-02-20T12:11:10;100870.31;;;14.44
70389;BMP280;58659;49.050;8.530;2023-02-20T12:13:40;100870.94;;;14.37
70389;BMP280;58659;49.050;8.530;2023-02-20T12:27:49;100854.81;;;15.10
70389;BMP280;58659;49.050;8.530;2023-02-20T12:35:35;100851.44;;;14.87
70389;BMP280;58659;49.050;8.530;2023-02-20T12:38:28;100843.81;;;15.05
70389;BMP280;58659;49.050;8.530;2023-02-20T12:41:13;100834.22;;;14.90
70389;BMP280;58659;49.050;8.530;2023-02-20T12:51:58;100824.34;;;14.83
70389;BMP280;58659;49.050;8.530;2023-02-20T12:54:34;100817.78;;;14.96
70389;BMP280;58659;49.050;8.530;2023-02-20T13:00:00;100800.75;;;15.46
70389;BMP280;58659;49.050;8.530;2023-02-20T13:05:02;100786.91;;;15.56
70389;BMP280;58659;49.050;8.530;2023-02-20T13:07:55;100807.72;;;15.35
70389;BMP280;58659;49.050;8.530;2023-02-20T13:12:49;100784.25;;;15.19
70389;BMP280;58659;49.050;8.530;2023-02-20T13:15:24;100790.47;;;15.38
70389;BMP280;58659;49.050;8.530;2023-02-20T13:18:03;100793.25;;;15.88
70389;BMP280;58659;49.050;8.530;2023-02-20T13:20:35;100788.91;;;16.07
70389;BMP280;58659;49.050;8.530;2023-02-20T13:23:04;100784.34;;;16.04
70389;BMP280;58659;49.050;8.530;2023-02-20T13:33:38;100776.38;;;15.56
70389;BMP280;58659;49.050;8.530;2023-02-20T13:36:05;100761.44;;;15.67
70389;BMP280;58659;49.050;8.530;2023-02-20T13:38:31;100756.16;;;15.64
70389;BMP280;58659;49.050;8.530;2023-02-20T13:56:17;100730.00;;;15.88
70389;BMP280;58659;49.050;8.530;2023-02-20T13:58:47;100721.66;;;15.79
70389;BMP280;58659;49.050;8.530;2023-02-20T14:01:13;100712.56;;;15.77
70389;BMP280;58659;49.050;8.530;2023-02-20T14:03:38;100706.06;;;16.08
70389;BMP280;58659;49.050;8.530;2023-02-20T14:08:32;100689.44;;;15.97
70389;BMP280;58659;49.050;8.530;2023-02-20T14:11:30;100705.50;;;15.88
70389;BMP280;58659;49.050;8.530;2023-02-20T14:13:57;100686.41;;;15.98
70389;BMP280;58659;49.050;8.530;2023-02-20T14:16:34;100701.44;;;15.94
70389;BMP280;58659;49.050;8.530;2023-02-20T14:21:44;100678.03;;;15.85
70389;BMP280;58659;49.050;8.530;2023-02-20T14:24:19;100642.72;;;15.93
70389;BMP280;58659;49.050;8.530;2023-02-20T14:26:46;100672.56;;;16.12
70389;BMP280;58659;49.050;8.530;2023-02-20T14:29:29;100674.38;;;16.01
70389;BMP280;58659;49.050;8.530;2023-02-20T14:31:57;100666.75;;;15.88
70389;BMP280;58659;49.050;8.530;2023-02-20T14:34:50;100676.34;;;16.11
70389;BMP280;58659;49.050;8.530;2023-02-20T14:37:47;100677.56;;;16.31
70389;BMP280;58659;49.050;8.530;2023-02-20T14:40:37;100667.09;;;16.34
70389;BMP280;58659;49.050;8.530;2023-02-20T14:43:13;100652.31;;;16.30
70389;BMP280;58659;49.050;8.530;2023-02-20T14:45:39;100659.41;;;16.15
70389;BMP280;58659;49.050;8.530;2023-02-20T14:48:04;100657.44;;;16.02
70389;BMP280;58659;49.050;8.530;2023-02-20T14:50:35;100654.13;;;16.15
70389;BMP280;58659;49.050;8.530;2023-02-20T14:53:12;100671.88;;;16.22
70389;BMP280;58659;49.050;8.530;2023-02-20T14:55:37;100654.91;;;16.16
70389;BMP280;58659;49.050;8.530;2023-02-20T14:58:07;100654.09;;;16.05
70389;BMP280;58659;49.050;8.530;2023-02-20T15:00:35;100656.25;;;15.92
70389;BMP280;58659;49.050;8.530;2023-02-20T15:03:28;100661.41;;;15.78
70389;BMP280;58659;49.050;8.530;2023-02-20T15:05:54;100647.81;;;15.69
70389;BMP280;58659;49.050;8.530;2023-02-20T15:08:29;100651.63;;;15.75
70389;BMP280;58659;49.050;8.530;2023-02-20T15:10:56;100634.28;;;15.74
70389;BMP280;58659;49.050;8.530;2023-02-20T15:13:26;100634.28;;;15.74
70389;BMP280;58659;49.050;8.530;2023-02-20T15:18:36;100632.97;;;15.50
70389;BMP280;58659;49.050;8.530;2023-02-20T15:21:02;100633.16;;;15.31
70389;BMP280;58659;49.050;8.530;2023-02-20T15:23:39;100627.06;;;15.23
70389;BMP280;58659;49.050;8.530;2023-02-20T15:26:31;100630.03;;;15.18
70389;BMP280;58659;49.050;8.530;2023-02-20T15:32:00;100611.66;;;14.89
70389;BMP280;58659;49.050;8.530;2023-02-20T15:34:28;100609.69;;;14.78
70389;BMP280;58659;49.050;8.530;2023-02-20T15:36:54;100603.50;;;14.64
70389;BMP280;58659;49.050;8.530;2023-02-20T15:39:20;100604.88;;;14.54
70389;BMP280;58659;49.050;8.530;2023-02-20T15:41:47;100602.97;;;14.51
70389;BMP280;58659;49.050;8.530;2023-02-20T15:44:12;100603.13;;;14.32
70389;BMP280;58659;49.050;8.530;2023-02-20T15:46:38;100590.19;;;14.20
70389;BMP280;58659;49.050;8.530;2023-02-20T15:49:03;100595.56;;;14.04
70389;BMP280;58659;49.050;8.530;2023-02-20T15:51:29;100591.72;;;13.98
70389;BMP280;58659;49.050;8.530;2023-02-20T15:53:57;100587.09;;;13.88
70389;BMP280;58659;49.050;8.530;2023-02-20T15:56:30;100587.06;;;13.85
70389;BMP280;58659;49.050;8.530;2023-02-20T15:59:00;100577.97;;;13.82
70389;BMP280;58659;49.050;8.530;2023-02-20T16:01:26;100577.84;;;13.72
70389;BMP280;58659;49.050;8.530;2023-02-20T16:03:51;100570.25;;;13.67
70389;BMP280;58659;49.050;8.530;2023-02-20T16:06:18;100583.66;;;13.61
70389;BMP280;58659;49.050;8.530;2023-02-20T16:08:44;100582.16;;;13.60
70389;BMP280;58659;49.050;8.530;2023-02-20T16:11:11;100585.72;;;13.49
70389;BMP280;58659;49.050;8.530;2023-02-20T16:13:40;100581.22;;;13.49
70389;BMP280;58659;49.050;8.530;2023-02-20T16:18:44;100590.78;;;13.38
70389;BMP280;58659;49.050;8.530;2023-02-20T16:21:12;100583.88;;;13.30
70389;BMP280;58659;49.050;8.530;2023-02-20T16:23:38;100580.94;;;13.32
70389;BMP280;58659;49.050;8.530;2023-02-20T16:26:06;100582.66;;;13.24
70389;BMP280;58659;49.050;8.530;2023-02-20T16:28:32;100574.66;;;13.17
70389;BMP280;58659;49.050;8.530;2023-02-20T16:30:57;100568.16;;;13.11
70389;BMP280;58659;49.050;8.530;2023-02-20T16:33:23;100573.72;;;13.06